Time;durP1;ratioP1;P1;durP2;ratioP2;P2;SDS_P1;SDS_P2;PMS_P1;PMS_P2;Temp;Humidity;BMP_temperature;BMP_pressure;BME280_temperature;BME280_humidity;BME280_pressure;Samples;Min_cycle;Max_cycle;Signal;HPM_P1;HPM_P2
2021/04/09 00:00:17;;;;;;;8.90;4.38;;;;;;;0.85;66.54;96167.94;5031006;28;20068;-52
2021/04/09 00:02:44;;;;;;;6.93;4.72;;;;;;;0.98;66.59;96167.41;5027467;28;20058;-54
2021/04/09 00:05:16;;;;;;;8.77;4.30;;;;;;;0.87;66.36;96155.94;5028976;28;20049;-52
2021/04/09 00:07:44;;;;;;;7.82;4.35;;;;;;;0.94;65.92;96163.66;5012843;28;20053;-54
2021/04/09 00:10:11;;;;;;;7.32;4.05;;;;;;;0.81;66.01;96158.84;5021091;28;20483;-52
2021/04/09 00:12:40;;;;;;;7.75;4.15;;;;;;;0.86;66.15;96156.22;5031545;28;20124;-52
2021/04/09 00:15:10;;;;;;;6.15;4.55;;;;;;;0.87;66.19;96157.78;5031629;28;20050;-55
2021/04/09 00:17:38;;;;;;;6.65;4.00;;;;;;;0.85;66.54;96151.94;5019524;28;20058;-53
2021/04/09 00:20:07;;;;;;;6.22;4.15;;;;;;;0.83;66.05;96148.75;5019020;28;20045;-53
2021/04/09 00:22:35;;;;;;;6.05;4.15;;;;;;;0.83;66.35;96143.41;5033083;28;20059;-52
2021/04/09 00:25:06;;;;;;;7.88;4.10;;;;;;;0.84;66.18;96151.13;5029974;28;20128;-51
2021/04/09 00:27:34;;;;;;;6.88;3.80;;;;;;;0.86;66.31;96142.88;5021256;28;20053;-54
2021/04/09 00:30:04;;;;;;;5.45;3.85;;;;;;;0.87;66.06;96139.94;5023729;28;20053;-55
2021/04/09 00:32:31;;;;;;;6.53;3.80;;;;;;;0.84;66.07;96134.34;5032224;28;20049;-53
2021/04/09 00:35:00;;;;;;;6.28;3.83;;;;;;;0.83;66.00;96133.56;5013902;28;20045;-54
2021/04/09 00:37:27;;;;;;;5.45;4.00;;;;;;;0.85;65.82;96136.78;5030856;28;20049;-53
2021/04/09 00:39:55;;;;;;;5.93;3.92;;;;;;;0.83;66.31;96136.22;5019987;28;20603;-53
2021/04/09 00:42:23;;;;;;;5.53;3.78;;;;;;;0.90;65.18;96134.09;5032549;28;20054;-51
2021/04/09 00:44:57;;;;;;;6.63;4.18;;;;;;;0.84;65.86;96134.34;5034568;28;20510;-55
2021/04/09 00:47:26;;;;;;;6.22;4.05;;;;;;;0.77;66.13;96133.81;5026092;28;20050;-56
2021/04/09 00:49:54;;;;;;;7.30;3.90;;;;;;;0.88;65.71;96135.44;5020918;28;20053;-51
2021/04/09 00:52:29;;;;;;;7.75;3.78;;;;;;;0.90;65.67;96138.63;5032120;28;20080;-55
2021/04/09 00:55:00;;;;;;;8.23;3.90;;;;;;;0.90;65.37;96127.97;5030170;28;20049;-55
2021/04/09 00:57:28;;;;;;;7.22;4.00;;;;;;;0.86;65.64;96124.25;5012259;28;20053;-55
2021/04/09 00:59:58;;;;;;;7.47;3.65;;;;;;;0.88;65.60;96125.59;5021176;28;20565;-53
2021/04/09 01:02:27;;;;;;;6.35;3.80;;;;;;;0.78;65.96;96124.75;5029599;28;20522;-51
2021/04/09 01:04:56;;;;;;;6.40;3.78;;;;;;;0.78;65.83;96124.75;5022477;28;20077;-53
2021/04/09 01:07:24;;;;;;;6.78;3.55;;;;;;;0.74;66.14;96118.38;5012236;28;20060;-55
2021/04/09 01:09:54;;;;;;;7.47;3.70;;;;;;;0.71;66.37;96111.69;5029703;28;20103;-54
2021/04/09 01:12:23;;;;;;;4.72;3.15;;;;;;;0.68;66.03;96106.91;5031505;28;20091;-56
2021/04/09 01:14:53;;;;;;;6.10;3.67;;;;;;;0.77;65.63;96107.19;5030927;28;20065;-54
2021/04/09 01:17:37;;;;;;;6.40;3.70;;;;;;;0.67;65.91;96108.78;5015012;28;20054;-54
2021/04/09 01:20:29;;;;;;;6.63;3.20;;;;;;;0.72;65.85;96104.53;5021137;28;20053;-52
2021/04/09 01:23:25;;;;;;;5.85;3.30;;;;;;;0.68;66.11;96091.75;5031869;28;20103;-53
2021/04/09 01:26:00;;;;;;;5.28;3.20;;;;;;;0.72;65.59;96091.22;5022912;28;20049;-53
2021/04/09 01:28:36;;;;;;;6.20;3.80;;;;;;;0.60;66.01;96097.59;5012949;28;20489;-51
2021/04/09 01:31:22;;;;;;;5.07;3.08;;;;;;;0.63;65.73;96091.72;5029163;28;20501;-52
2021/04/09 01:33:54;;;;;;;5.78;3.72;;;;;;;0.55;65.80;96094.91;5029480;28;20049;-53
2021/04/09 01:36:37;;;;;;;5.55;2.97;;;;;;;0.51;66.56;96087.72;5012795;28;20088;-55
2021/04/09 01:39:30;;;;;;;4.93;3.08;;;;;;;0.44;66.44;96087.97;5010489;28;20116;-56
2021/04/09 01:41:59;;;;;;;7.07;2.92;;;;;;;0.53;66.41;96090.94;5021291;28;20505;-55
2021/04/09 01:44:30;;;;;;;6.05;3.20;;;;;;;0.54;65.78;96087.19;5039591;28;20081;-53
2021/04/09 01:47:01;;;;;;;4.15;3.00;;;;;;;0.41;66.66;96089.28;5027996;28;20124;-52
2021/04/09 01:49:33;;;;;;;6.47;3.38;;;;;;;0.53;66.02;96089.06;5030961;28;20458;-53
2021/04/09 01:52:01;;;;;;;5.55;2.97;;;;;;;0.52;66.20;96079.47;5029995;28;20445;-55
2021/04/09 01:54:32;;;;;;;5.60;3.15;;;;;;;0.41;66.42;96085.84;5027503;28;20049;-54
2021/04/09 01:57:01;;;;;;;6.07;3.28;;;;;;;0.42;66.63;96079.44;5029663;28;20502;-55
2021/04/09 01:59:32;;;;;;;4.93;2.75;;;;;;;0.58;65.57;96080.25;5031273;28;20073;-52
2021/04/09 02:02:02;;;;;;;6.22;2.63;;;;;;;0.46;65.76;96075.22;5031012;28;20104;-55
2021/04/09 02:04:31;;;;;;;4.60;3.08;;;;;;;0.47;65.92;96077.59;5025969;28;20057;-54
2021/04/09 02:07:02;;;;;;;5.88;3.13;;;;;;;0.36;66.96;96076.00;5027831;28;20045;-55
2021/04/09 02:09:31;;;;;;;5.88;2.60;;;;;;;0.36;67.24;96064.56;5012972;28;20062;-51
2021/04/09 02:12:00;;;;;;;4.95;2.95;;;;;;;0.33;66.99;96070.41;5027338;28;20055;-55
2021/04/09 02:14:30;;;;;;;5.18;2.80;;;;;;;0.30;67.30;96066.41;5031873;28;20045;-55
2021/04/09 02:16:59;;;;;;;4.35;2.70;;;;;;;0.36;66.80;96069.88;5027963;28;20073;-56
2021/04/09 02:19:26;;;;;;;4.40;2.55;;;;;;;0.48;66.16;96067.75;5015019;28;20133;-52
2021/04/09 02:21:53;;;;;;;5.63;2.63;;;;;;;0.38;66.27;96065.06;4997105;28;20054;-55
2021/04/09 02:24:21;;;;;;;3.95;2.50;;;;;;;0.30;67.15;96066.41;5032068;28;20140;-55
2021/04/09 02:26:51;;;;;;;6.40;3.10;;;;;;;0.30;67.04;96058.41;5023383;28;20049;-53
2021/04/09 02:29:21;;;;;;;5.15;2.78;;;;;;;0.26;67.29;96060.00;5033620;28;20404;-55
2021/04/09 02:31:49;;;;;;;5.47;3.20;;;;;;;0.23;66.88;96055.22;5032758;28;20042;-55
2021/04/09 02:34:18;;;;;;;5.65;2.83;;;;;;;0.17;67.52;96049.06;5033047;28;20045;-52
2021/04/09 02:36:46;;;;;;;4.75;2.80;;;;;;;0.20;67.19;96055.75;5030948;28;20049;-55
2021/04/09 02:39:18;;;;;;;4.32;2.75;;;;;;;0.15;68.30;96051.19;5024434;28;20052;-53
2021/04/09 02:41:54;;;;;;;6.88;3.20;;;;;;;0.11;67.51;96047.47;5031252;28;20088;-53
2021/04/09 02:44:22;;;;;;;5.10;2.95;;;;;;;0.12;67.63;96054.38;5034500;28;20057;-55
2021/04/09 02:47:02;;;;;;;6.07;3.00;;;;;;;0.17;68.26;96050.94;5025065;28;20053;-56
2021/04/09 02:49:37;;;;;;;5.60;2.70;;;;;;;0.21;66.46;96044.81;5034195;28;20127;-54
2021/04/09 02:52:12;;;;;;;4.25;2.53;;;;;;;0.18;66.91;96039.22;5032251;28;20136;-52
2021/04/09 02:54:42;;;;;;;4.28;2.60;;;;;;;0.22;66.53;96038.41;5031667;28;20049;-53
2021/04/09 02:57:13;;;;;;;4.82;2.78;;;;;;;0.16;66.89;96038.69;5020384;28;20073;-55
2021/04/09 02:59:41;;;;;;;5.47;2.80;;;;;;;0.10;67.12;96035.22;5034441;28;20455;-53
2021/04/09 03:02:09;;;;;;;4.90;2.72;;;;;;;0.09;67.65;96036.28;5033469;28;20095;-56
2021/04/09 03:04:36;;;;;;;4.15;2.90;;;;;;;0.07;68.33;96033.09;5024073;28;20077;-49
2021/04/09 03:07:03;;;;;;;4.45;2.60;;;;;;;0.03;68.65;96032.00;5026358;23;20045;-51
2021/04/09 03:09:30;;;;;;;4.25;2.83;;;;;;;0.01;69.36;96036.81;5014120;28;20387;-50
2021/04/09 03:11:57;;;;;;;5.38;2.65;;;;;;;0.04;67.46;96033.63;5012555;28;20585;-52
2021/04/09 03:14:24;;;;;;;6.03;2.60;;;;;;;0.01;68.66;96026.16;5019778;28;20054;-53
2021/04/09 03:17:02;;;;;;;5.28;2.83;;;;;;;-0.01;68.45;96029.06;5013480;28;20042;-55
2021/04/09 03:19:29;;;;;;;5.80;3.50;;;;;;;-0.02;67.81;96021.38;5013836;28;20145;-55
2021/04/09 03:21:55;;;;;;;4.50;2.63;;;;;;;0.01;68.28;96023.50;5014030;28;20112;-50
2021/04/09 03:24:22;;;;;;;4.78;2.67;;;;;;;0.04;67.47;96019.53;5011246;28;20057;-48
2021/04/09 03:26:49;;;;;;;5.75;2.75;;;;;;;0.05;67.38;96021.91;5026321;28;20131;-57
2021/04/09 03:29:15;;;;;;;4.95;3.00;;;;;;;0.03;67.05;96015.25;5025196;28;20050;-52
2021/04/09 03:31:42;;;;;;;5.72;2.63;;;;;;;0.07;66.67;96024.31;5012173;28;20507;-49
2021/04/09 03:34:08;;;;;;;4.65;2.50;;;;;;;0.04;66.57;96025.63;5012606;28;20418;-52
2021/04/09 03:36:35;;;;;;;6.03;3.00;;;;;;;-0.04;69.08;96023.47;5013231;28;20073;-49
2021/04/09 03:39:02;;;;;;;4.88;3.17;;;;;;;-0.22;68.62;96014.13;5025793;28;20127;-55
2021/04/09 03:41:29;;;;;;;5.15;2.72;;;;;;;-0.18;68.57;96017.84;5032533;28;20057;-55
2021/04/09 03:44:10;;;;;;;6.72;2.80;;;;;;;-0.29;68.63;96022.34;5022936;28;20515;-50
2021/04/09 03:46:37;;;;;;;5.20;2.80;;;;;;;-0.29;69.13;96017.03;5013110;28;20100;-53
2021/04/09 03:49:03;;;;;;;8.77;2.95;;;;;;;-0.35;69.15;96017.28;5012477;28;20474;-51
2021/04/09 03:51:30;;;;;;;5.90;2.80;;;;;;;-0.49;68.87;96012.44;5012487;28;20085;-46
2021/04/09 03:53:58;;;;;;;6.22;2.90;;;;;;;-0.53;69.72;96021.97;5010965;28;20049;-54
2021/04/09 03:56:24;;;;;;;6.53;2.88;;;;;;;-0.58;69.35;96019.31;5013240;28;20140;-55
2021/04/09 03:58:51;;;;;;;4.68;2.88;;;;;;;-0.53;69.71;96021.97;5031336;28;20049;-49
2021/04/09 04:01:17;;;;;;;4.22;2.33;;;;;;;-0.61;69.53;96021.69;5031591;28;20058;-48
2021/04/09 04:03:48;;;;;;;6.20;2.92;;;;;;;-0.60;69.91;96020.63;4993464;28;20149;-48
2021/04/09 04:06:15;;;;;;;6.30;3.10;;;;;;;-0.56;69.52;96014.50;5004906;28;20046;-48
2021/04/09 04:08:42;;;;;;;5.28;2.70;;;;;;;-0.39;68.74;96011.69;5011050;28;20057;-57
2021/04/09 04:11:08;;;;;;;4.88;2.70;;;;;;;-0.28;68.16;96010.66;5011875;28;20458;-56
2021/04/09 04:13:35;;;;;;;6.80;2.60;;;;;;;-0.14;66.69;96007.50;5011960;28;20086;-53
2021/04/09 04:16:02;;;;;;;7.40;2.80;;;;;;;-0.14;66.82;96007.50;5012195;28;20399;-57
2021/04/09 04:18:28;;;;;;;6.65;2.65;;;;;;;-0.17;66.75;96003.50;5025617;28;20053;-55
2021/04/09 04:20:55;;;;;;;6.72;2.75;;;;;;;-0.07;66.61;96002.72;5031207;28;20483;-56
2021/04/09 04:23:22;;;;;;;4.05;2.33;;;;;;;-0.11;67.02;96006.97;5031351;28;20049;-55
2021/04/09 04:25:48;;;;;;;4.57;2.38;;;;;;;-0.12;67.36;96002.72;5031573;28;20053;-51
2021/04/09 04:28:16;;;;;;;4.18;2.53;;;;;;;-0.06;65.63;96007.78;5011132;28;20052;-49
2021/04/09 04:30:50;;;;;;;6.00;2.20;;;;;;;0.07;65.13;95998.50;5011610;28;20057;-55
2021/04/09 04:33:20;;;;;;;5.13;2.13;;;;;;;0.07;64.61;96008.34;5011995;28;20075;-56
2021/04/09 04:35:47;;;;;;;6.00;3.13;;;;;;;0.04;64.79;96006.22;5002660;28;20137;-54
2021/04/09 04:38:15;;;;;;;4.53;2.22;;;;;;;0.06;64.67;96007.53;5003681;28;20119;-59
2021/04/09 04:40:42;;;;;;;6.55;3.13;;;;;;;0.11;64.01;96004.91;5012559;28;20068;-56
2021/04/09 04:43:09;;;;;;;7.10;3.00;;;;;;;0.18;63.21;95999.31;5011688;28;20054;-56
2021/04/09 04:45:36;;;;;;;7.07;2.30;;;;;;;0.08;63.87;96001.97;4995537;28;20138;-51
2021/04/09 04:48:03;;;;;;;4.53;2.00;;;;;;;0.04;65.64;96007.00;4998170;28;20073;-53
2021/04/09 04:50:30;;;;;;;5.10;2.45;;;;;;;0.10;64.22;96003.31;5010341;28;20064;-47
2021/04/09 04:52:56;;;;;;;9.85;2.88;;;;;;;0.27;63.24;96002.25;5010731;28;20487;-54
2021/04/09 04:55:23;;;;;;;5.97;2.40;;;;;;;0.35;62.37;96004.38;5011010;28;20041;-51
2021/04/09 04:57:49;;;;;;;7.43;2.78;;;;;;;0.24;64.26;96008.91;5011265;28;20054;-50
2021/04/09 05:00:16;;;;;;;6.28;2.28;;;;;;;0.28;62.65;96015.28;5007877;28;20092;-54
2021/04/09 05:02:43;;;;;;;10.85;3.42;;;;;;;0.40;61.84;96012.38;5023046;28;20572;-52
2021/04/09 05:05:10;;;;;;;5.70;2.30;;;;;;;0.39;63.12;96018.75;5013670;28;20061;-50
2021/04/09 05:07:37;;;;;;;3.65;2.38;;;;;;;0.35;63.84;96010.50;5007636;28;20057;-54
2021/04/09 05:10:07;;;;;;;3.72;1.85;;;;;;;0.39;62.47;96014.25;5010033;28;20132;-49
2021/04/09 05:12:34;;;;;;;5.70;2.17;;;;;;;0.47;61.50;96012.91;5011036;28;20062;-52
2021/04/09 05:15:01;;;;;;;4.50;2.53;;;;;;;0.58;60.71;96016.38;5010643;28;20380;-55
2021/04/09 05:17:28;;;;;;;5.60;2.15;;;;;;;0.61;60.91;96005.19;5013774;28;20107;-54
2021/04/09 05:19:55;;;;;;;5.35;2.30;;;;;;;0.67;60.15;96014.78;5030460;28;20107;-49
2021/04/09 05:22:22;;;;;;;6.00;2.42;;;;;;;0.68;59.93;96011.03;5015397;28;20049;-52
2021/04/09 05:24:49;;;;;;;8.50;2.45;;;;;;;0.73;59.94;96010.25;5009442;28;20050;-51
2021/04/09 05:27:16;;;;;;;5.43;2.22;;;;;;;0.87;59.42;96008.63;5008456;28;20137;-54
2021/04/09 05:29:43;;;;;;;9.18;2.08;;;;;;;0.81;59.62;96007.03;5010761;28;20053;-51
2021/04/09 05:32:13;;;;;;;6.10;2.40;;;;;;;0.83;60.90;96007.56;5009476;28;20050;-47
2021/04/09 05:34:40;;;;;;;10.02;2.60;;;;;;;0.87;59.63;96008.63;5013794;28;20053;-48
2021/04/09 05:37:08;;;;;;;3.55;2.05;;;;;;;0.99;59.84;96009.16;5008471;28;20045;-49
2021/04/09 05:39:35;;;;;;;4.57;2.33;;;;;;;0.98;59.01;96007.56;5012543;28;20057;-51
2021/04/09 05:42:02;;;;;;;4.70;2.17;;;;;;;1.11;58.38;96011.53;5002719;28;20042;-51
2021/04/09 05:44:30;;;;;;;7.68;2.50;;;;;;;1.17;58.00;96003.25;5010057;28;20053;-53
2021/04/09 05:46:57;;;;;;;5.70;2.53;;;;;;;1.24;58.04;95996.84;5009695;28;20050;-51
2021/04/09 05:49:24;;;;;;;6.68;2.58;;;;;;;1.39;57.46;96002.13;5009672;28;20062;-53
2021/04/09 05:51:51;;;;;;;5.50;2.22;;;;;;;1.38;57.00;96001.31;5028995;28;20057;-51
2021/04/09 05:54:17;;;;;;;6.75;2.30;;;;;;;1.61;55.55;95999.91;5012263;28;21024;-53
2021/04/09 05:56:44;;;;;;;4.63;2.53;;;;;;;1.79;55.13;95992.38;5006086;28;20072;-53
2021/04/09 05:59:10;;;;;;;5.65;2.30;;;;;;;1.72;54.88;96000.66;5014711;28;20076;-53
2021/04/09 06:01:37;;;;;;;4.55;2.65;;;;;;;1.76;54.67;96003.59;5014123;28;20570;-52
2021/04/09 06:04:04;;;;;;;6.88;2.33;;;;;;;1.82;55.27;95999.81;5019991;28;20100;-49
2021/04/09 06:06:30;;;;;;;8.02;2.17;;;;;;;1.81;55.27;95995.56;5014200;28;20071;-50
2021/04/09 06:08:57;;;;;;;6.72;2.70;;;;;;;1.97;54.56;96002.41;5025417;28;20422;-52
2021/04/09 06:11:23;;;;;;;10.52;3.67;;;;;;;2.00;54.93;95998.38;5008922;28;20058;-52
2021/04/09 06:13:53;;;;;;;6.93;3.53;;;;;;;2.30;52.69;96000.06;5018394;28;20495;-47
2021/04/09 06:16:20;;;;;;;4.05;2.15;;;;;;;2.48;52.03;96004.75;5033970;28;20437;-54
2021/04/09 06:18:46;;;;;;;7.97;2.70;;;;;;;2.57;51.74;95994.28;5034281;28;20159;-55
2021/04/09 06:21:13;;;;;;;8.63;3.00;;;;;;;2.75;50.79;96003.47;5021824;28;20427;-48
2021/04/09 06:23:39;;;;;;;8.70;2.80;;;;;;;2.83;50.29;96002.06;5013423;28;20478;-47
2021/04/09 06:26:06;;;;;;;7.05;2.33;;;;;;;2.83;51.28;95992.19;5013986;28;20411;-54
2021/04/09 06:28:33;;;;;;;7.30;3.42;;;;;;;3.09;49.33;95994.59;5013292;28;20050;-56
2021/04/09 06:31:00;;;;;;;10.15;3.50;;;;;;;3.17;48.67;95989.44;4995665;28;20693;-57
2021/04/09 06:33:36;;;;;;;7.95;3.20;;;;;;;3.39;47.15;95994.28;4996569;28;21926;-52
2021/04/09 06:36:04;;;;;;;6.97;3.08;;;;;;;3.51;46.56;95994.69;5013746;28;20565;-49
2021/04/09 06:38:31;;;;;;;13.25;7.90;;;;;;;3.77;46.53;95986.38;4991403;28;20156;-49
2021/04/09 06:40:58;;;;;;;14.70;8.05;;;;;;;3.67;45.83;95991.81;5010475;28;20380;-51
2021/04/09 06:43:25;;;;;;;12.98;7.70;;;;;;;3.99;45.67;95980.44;5015566;28;20447;-55
2021/04/09 06:45:52;;;;;;;11.65;3.45;;;;;;;4.12;44.41;95982.38;5016634;28;20042;-58
2021/04/09 06:48:18;;;;;;;8.45;3.33;;;;;;;4.34;43.77;95981.03;5010715;28;20054;-54
2021/04/09 06:50:45;;;;;;;5.90;2.58;;;;;;;4.54;43.35;95985.28;5014489;28;20054;-51
2021/04/09 06:53:13;;;;;;;6.28;2.67;;;;;;;4.66;42.09;95983.72;5014237;28;20053;-54
2021/04/09 06:55:44;;;;;;;4.85;1.92;;;;;;;4.77;41.58;95989.72;5020118;28;20057;-47
2021/04/09 06:58:15;;;;;;;8.18;2.40;;;;;;;4.88;40.25;95988.47;5033724;28;20064;-51
2021/04/09 07:00:43;;;;;;;6.40;3.25;;;;;;;4.96;40.04;95975.47;5014188;28;20046;-53
2021/04/09 07:03:10;;;;;;;4.45;2.00;;;;;;;5.10;39.70;95979.78;5013103;28;20056;-52
2021/04/09 07:05:40;;;;;;;4.05;2.03;;;;;;;5.21;39.63;95977.69;5007108;28;20042;-50
2021/04/09 07:08:09;;;;;;;5.35;1.85;;;;;;;5.44;39.10;95983.19;5007723;28;20092;-50
2021/04/09 07:10:36;;;;;;;4.72;2.08;;;;;;;5.61;38.73;95980.69;4993532;28;20134;-54
2021/04/09 07:13:10;;;;;;;2.75;1.60;;;;;;;5.67;38.23;95971.44;5005106;28;20046;-49
2021/04/09 07:15:41;;;;;;;5.25;1.90;;;;;;;5.83;36.77;95969.25;5004830;28;20046;-55
2021/04/09 07:18:09;;;;;;;6.18;2.20;;;;;;;6.00;36.76;95979.38;5013171;28;20046;-52
2021/04/09 07:20:38;;;;;;;7.03;1.95;;;;;;;6.10;36.19;95965.72;5009286;28;20142;-50
2021/04/09 07:23:07;;;;;;;10.52;1.60;;;;;;;6.18;35.60;95973.09;5011592;28;20084;-53
2021/04/09 07:25:43;;;;;;;5.72;2.22;;;;;;;6.34;35.40;95973.53;5011323;28;20088;-53
2021/04/09 07:28:18;;;;;;;7.13;2.28;;;;;;;6.49;35.40;95970.47;5031795;28;20084;-46
2021/04/09 07:30:50;;;;;;;4.13;2.10;;;;;;;6.68;34.04;95969.53;5013682;28;20049;-54
2021/04/09 07:33:19;;;;;;;5.53;1.70;;;;;;;6.75;34.06;95969.88;5009948;28;20263;-50
2021/04/09 07:35:49;;;;;;;6.05;1.73;;;;;;;6.97;32.92;95975.25;5012818;28;20073;-51
2021/04/09 07:38:36;;;;;;;5.32;1.30;;;;;;;7.16;32.14;95969.66;5007798;28;20125;-52
2021/04/09 07:41:05;;;;;;;3.58;1.52;;;;;;;7.36;31.89;95962.13;5006332;28;20076;-52
2021/04/09 07:43:34;;;;;;;7.88;1.63;;;;;;;7.46;32.50;95968.03;4999959;28;20474;-49
2021/04/09 07:46:03;;;;;;;7.47;1.70;;;;;;;7.59;30.51;95958.25;5013294;28;20054;-47
2021/04/09 07:48:35;;;;;;;4.07;1.48;;;;;;;7.71;30.67;95958.47;5019960;28;20046;-50
2021/04/09 07:51:04;;;;;;;5.18;1.60;;;;;;;7.77;30.30;95961.81;5005825;28;20422;-48
2021/04/09 07:53:31;;;;;;;7.53;1.52;;;;;;;7.97;31.13;95963.13;5021607;28;20050;-47
2021/04/09 07:56:11;;;;;;;4.95;1.75;;;;;;;8.08;30.74;95956.31;5010718;28;20386;-50
2021/04/09 07:58:40;;;;;;;3.83;1.60;;;;;;;8.14;30.07;95955.06;5015261;28;20049;-47
2021/04/09 08:01:27;;;;;;;4.50;1.35;;;;;;;8.26;30.73;95945.56;5015467;28;20065;-48
2021/04/09 08:03:57;;;;;;;3.03;1.20;;;;;;;8.39;28.63;95950.81;5009017;28;20062;-53
2021/04/09 08:06:34;;;;;;;6.53;1.92;;;;;;;8.42;29.89;95952.09;5011084;28;20070;-48
2021/04/09 08:09:03;;;;;;;4.90;1.88;;;;;;;8.59;28.58;95944.00;5017868;28;20466;-47
2021/04/09 08:11:32;;;;;;;6.38;1.98;;;;;;;8.69;27.25;95947.47;5014201;28;20523;-49
2021/04/09 08:14:01;;;;;;;7.13;2.55;;;;;;;8.81;27.47;95939.53;5006449;28;20045;-49
2021/04/09 08:16:30;;;;;;;7.95;2.60;;;;;;;8.93;27.01;95942.34;5014798;28;20057;-46
2021/04/09 08:19:06;;;;;;;6.55;2.25;;;;;;;9.04;25.95;95943.59;5014745;28;20570;-47
2021/04/09 08:21:36;;;;;;;4.65;1.77;;;;;;;9.13;26.32;95938.97;5010984;28;20102;-51
2021/04/09 08:24:03;;;;;;;9.05;2.92;;;;;;;9.29;26.12;95947.31;5013141;28;20053;-51
2021/04/09 08:26:30;;;;;;;5.70;2.25;;;;;;;9.21;26.64;95942.75;5007144;28;20054;-47
2021/04/09 08:28:57;;;;;;;7.30;2.20;;;;;;;9.29;26.74;95946.53;5011229;28;20069;-52
2021/04/09 08:31:24;;;;;;;11.85;3.38;;;;;;;9.48;26.54;95946.13;5008554;28;20147;-50
2021/04/09 08:33:52;;;;;;;5.43;1.58;;;;;;;9.58;25.05;95945.75;5011370;28;20050;-49
2021/04/09 08:36:19;;;;;;;7.57;1.95;;;;;;;9.77;24.57;95939.94;5012879;28;20051;-50
2021/04/09 08:38:47;;;;;;;6.10;2.00;;;;;;;9.87;24.79;95947.69;5019990;28;20059;-52
2021/04/09 08:41:15;;;;;;;5.57;1.77;;;;;;;9.96;24.41;95948.44;5017210;28;20128;-50
2021/04/09 08:43:42;;;;;;;4.93;1.70;;;;;;;10.00;24.90;95945.84;5012601;28;20053;-53
2021/04/09 08:46:09;;;;;;;2.85;1.90;;;;;;;10.14;24.44;95941.00;5009423;28;20493;-52
2021/04/09 08:48:39;;;;;;;3.90;1.55;;;;;;;10.07;24.35;95936.13;5008667;28;20064;-47
2021/04/09 08:51:08;;;;;;;3.75;1.38;;;;;;;10.19;24.14;95932.69;5016562;28;20057;-50
2021/04/09 08:53:52;;;;;;;3.58;1.40;;;;;;;10.29;24.90;95934.22;5012486;28;20092;-50
2021/04/09 08:56:40;;;;;;;3.67;1.30;;;;;;;10.31;24.38;95940.13;5006425;28;20722;-49
2021/04/09 08:59:07;;;;;;;4.25;1.40;;;;;;;10.52;24.46;95932.75;5004283;28;20487;-46
2021/04/09 09:01:33;;;;;;;4.30;1.85;;;;;;;10.71;22.03;95926.09;5009607;28;20054;-47
2021/04/09 09:04:20;;;;;;;4.18;1.98;;;;;;;10.82;23.04;95921.84;5010443;28;20049;-49
2021/04/09 09:06:48;;;;;;;3.55;1.42;;;;;;;10.98;22.37;95935.53;5003514;28;20070;-48
2021/04/09 09:09:28;;;;;;;3.85;1.50;;;;;;;11.00;22.62;95928.66;5023799;28;20451;-49
2021/04/09 09:12:02;;;;;;;4.63;1.40;;;;;;;10.97;22.83;95931.25;5008153;28;20096;-50
2021/04/09 09:14:37;;;;;;;4.53;1.65;;;;;;;10.95;22.85;95931.59;5010147;28;20067;-44
2021/04/09 09:17:16;;;;;;;5.45;1.60;;;;;;;10.97;22.97;95929.31;5016182;28;20042;-43
2021/04/09 09:20:06;;;;;;;2.78;1.40;;;;;;;11.07;23.52;95921.91;5016922;28;20049;-46
2021/04/09 09:22:53;;;;;;;2.75;1.40;;;;;;;11.24;22.35;95921.69;5002716;28;20058;-42
2021/04/09 09:25:34;;;;;;;2.80;1.52;;;;;;;11.41;21.58;95920.72;5016597;28;20165;-45
2021/04/09 09:28:02;;;;;;;4.10;1.30;;;;;;;11.43;21.33;95918.44;5023177;28;20132;-46
2021/04/09 09:30:39;;;;;;;3.92;1.77;;;;;;;11.51;20.89;95908.66;5014344;28;20408;-47
2021/04/09 09:33:19;;;;;;;2.78;1.55;;;;;;;11.66;21.21;95922.28;4999038;28;20173;-47
2021/04/09 09:36:04;;;;;;;4.47;1.88;;;;;;;11.72;20.81;95913.94;5014329;28;20042;-42
2021/04/09 09:38:53;;;;;;;3.78;1.55;;;;;;;11.79;21.43;95920.38;5008394;28;20058;-46
2021/04/09 09:41:35;;;;;;;3.40;1.70;;;;;;;11.77;20.85;95911.81;5011345;28;20053;-48
2021/04/09 09:44:22;;;;;;;4.13;1.65;;;;;;;11.75;21.31;95902.44;5004243;28;20058;-53
2021/04/09 09:47:06;;;;;;;3.47;1.58;;;;;;;11.97;21.00;95896.56;5002258;28;20543;-51
2021/04/09 09:49:37;;;;;;;4.35;2.00;;;;;;;12.01;21.38;95894.72;5005347;28;20054;-50
2021/04/09 09:52:24;;;;;;;;;;;;;;;12.11;21.23;95888.06;5009633;28;20529;-51
2021/04/09 09:55:44;;;;;;;3.13;1.70;;;;;;;12.07;21.15;95885.25;5017344;28;19929;-45
2021/04/09 09:58:22;;;;;;;3.55;1.98;;;;;;;12.06;21.33;95877.47;5010167;28;20116;-50
2021/04/09 10:00:57;;;;;;;9.38;2.08;;;;;;;12.24;21.86;95878.75;5009497;28;20085;-50
2021/04/09 10:03:32;;;;;;;6.10;2.00;;;;;;;12.22;19.52;95867.47;5016225;28;20053;-47
2021/04/09 10:06:00;;;;;;;3.95;1.90;;;;;;;12.28;20.51;95870.69;5013139;28;20434;-45
2021/04/09 10:08:29;;;;;;;4.93;1.80;;;;;;;12.50;20.53;95858.53;5023587;28;20069;-46
2021/04/09 10:11:02;;;;;;;5.25;2.08;;;;;;;12.77;20.36;95859.63;5007797;28;20136;-44
2021/04/09 10:13:34;;;;;;;5.38;2.00;;;;;;;12.74;20.09;95855.72;5014406;28;20041;-50
2021/04/09 10:16:11;;;;;;;4.13;2.05;;;;;;;12.92;19.87;95858.09;5011486;28;20077;-47
2021/04/09 10:18:48;;;;;;;7.15;1.90;;;;;;;12.99;20.36;95847.41;5010740;28;20050;-49
2021/04/09 10:21:14;;;;;;;3.25;1.92;;;;;;;13.05;19.75;95841.34;5012607;28;20057;-46
2021/04/09 10:23:42;;;;;;;4.68;2.00;;;;;;;13.17;19.87;95835.06;4995503;28;20066;-49
2021/04/09 10:26:09;;;;;;;4.43;1.83;;;;;;;13.26;19.67;95833.00;5011804;28;20049;-47
2021/04/09 10:28:37;;;;;;;6.32;2.00;;;;;;;13.26;19.52;95827.56;5013520;28;20483;-46
2021/04/09 10:31:14;;;;;;;4.40;1.90;;;;;;;13.27;19.83;95829.13;5022857;28;20060;-51
2021/04/09 10:33:43;;;;;;;2.90;1.70;;;;;;;13.39;19.90;95817.38;5009659;28;20053;-49
2021/04/09 10:36:24;;;;;;;4.63;1.80;;;;;;;13.69;19.60;95817.66;5008397;28;20073;-51
2021/04/09 10:39:00;;;;;;;4.15;1.60;;;;;;;13.94;18.35;95825.56;5009859;28;20495;-53
2021/04/09 10:41:30;;;;;;;16.10;2.85;;;;;;;14.09;18.66;95818.50;5011512;28;20138;-52
2021/04/09 10:44:02;;;;;;;4.07;1.40;;;;;;;14.16;19.24;95819.41;5013072;28;20051;-51
2021/04/09 10:46:33;;;;;;;2.70;1.52;;;;;;;14.02;17.92;95816.41;5013992;28;20503;-47
2021/04/09 10:49:09;;;;;;;2.78;1.52;;;;;;;14.08;17.24;95812.28;5025346;28;20337;-47
2021/04/09 10:51:45;;;;;;;5.90;1.90;;;;;;;14.10;18.53;95809.97;5015912;28;20054;-47
2021/04/09 10:54:19;;;;;;;3.92;1.85;;;;;;;14.18;17.58;95813.63;5026112;28;20469;-48
2021/04/09 10:56:51;;;;;;;4.57;1.50;;;;;;;14.35;17.62;95806.97;5022717;28;20159;-48
2021/04/09 10:59:19;;;;;;;6.28;2.22;;;;;;;14.42;18.09;95801.66;5019274;28;20077;-47
2021/04/09 11:01:46;;;;;;;9.70;3.00;;;;;;;14.65;17.27;95799.78;5029933;28;20619;-47
2021/04/09 11:04:15;;;;;;;3.28;1.73;;;;;;;14.72;17.26;95797.19;5018895;28;20121;-51
2021/04/09 11:06:54;;;;;;;3.35;1.48;;;;;;;14.84;17.55;95800.88;5023613;28;20525;-49
2021/04/09 11:09:22;;;;;;;3.28;1.50;;;;;;;14.94;16.74;95794.84;5008479;28;20411;-49
2021/04/09 11:11:48;;;;;;;2.88;1.83;;;;;;;14.95;16.16;95799.16;5016097;28;20057;-47
2021/04/09 11:14:18;;;;;;;3.10;1.17;;;;;;;15.02;16.81;95793.81;5017596;28;20071;-45
2021/04/09 11:16:51;;;;;;;4.75;1.42;;;;;;;15.07;16.56;95793.50;5013429;28;20046;-48
2021/04/09 11:19:32;;;;;;;6.68;2.72;;;;;;;15.13;17.15;95786.59;5011987;28;20077;-54
2021/04/09 11:22:01;;;;;;;2.90;1.30;;;;;;;15.28;16.19;95786.84;5014349;28;20049;-48
2021/04/09 11:24:35;;;;;;;7.95;1.80;;;;;;;15.45;16.67;95783.59;5014909;28;20145;-44
2021/04/09 11:27:21;;;;;;;2.70;1.55;;;;;;;15.10;17.02;95770.97;5020281;28;20049;-43
2021/04/09 11:29:48;;;;;;;3.15;1.40;;;;;;;15.39;17.37;95771.41;5013299;28;20128;-47
2021/04/09 11:32:20;;;;;;;2.90;1.40;;;;;;;15.40;16.52;95771.06;5010551;28;20161;-50
2021/04/09 11:34:49;;;;;;;3.10;1.38;;;;;;;15.26;16.89;95770.03;5017750;28;20053;-50
2021/04/09 11:37:19;;;;;;;4.32;1.30;;;;;;;15.14;17.01;95763.66;5007930;28;20144;-51
2021/04/09 11:39:54;;;;;;;3.85;1.70;;;;;;;15.39;17.05;95758.56;5006050;28;20092;-51
2021/04/09 11:42:35;;;;;;;3.20;1.40;;;;;;;15.58;17.03;95759.63;5017694;28;20107;-50
2021/04/09 11:45:11;;;;;;;3.38;1.58;;;;;;;15.64;16.78;95764.38;5011746;28;20430;-51
2021/04/09 11:47:40;;;;;;;3.67;1.58;;;;;;;15.52;17.85;95750.97;5008932;28;20056;-48
2021/04/09 11:50:16;;;;;;;2.78;1.50;;;;;;;15.81;16.72;95748.66;5010909;28;20057;-51
2021/04/09 11:53:04;;;;;;;3.15;1.63;;;;;;;15.94;17.47;95749.97;5026006;28;20049;-45
2021/04/09 11:55:33;;;;;;;4.55;1.45;;;;;;;15.92;16.93;95740.59;5006824;28;20084;-47